Time;durP1;ratioP1;P1;durP2;ratioP2;P2;SDS_P1;SDS_P2;PMS_P1;PMS_P2;Temp;Humidity;BMP_temperature;BMP_pressure;BME280_temperature;BME280_humidity;BME280_pressure;Samples;Min_cycle;Max_cycle;Signal;HPM_P1;HPM_P2
2022/07/10 00:00:27;;;;;;;6.63;5.93;;;;;;;18.40;87.11;156090.22;5071266;28;20793;-81
2022/07/10 00:02:54;;;;;;;6.73;5.70;;;;;;;18.39;88.01;156088.88;5077137;28;20545;-81
2022/07/10 00:05:22;;;;;;;7.73;6.00;;;;;;;18.35;88.48;156077.19;5103295;28;20507;-81
2022/07/10 00:07:50;;;;;;;6.27;5.60;;;;;;;18.34;88.69;156075.88;5070142;28;20438;-81
2022/07/10 00:10:17;;;;;;;7.33;6.40;;;;;;;18.37;88.60;156082.38;5070531;28;20503;-80
2022/07/10 00:12:44;;;;;;;7.10;6.50;;;;;;;18.36;89.14;156079.75;5069747;28;20529;-80
2022/07/10 00:15:12;;;;;;;7.60;6.90;;;;;;;18.30;86.20;156064.13;5103908;28;20446;-81
2022/07/10 00:17:40;;;;;;;5.90;5.40;;;;;;;18.26;85.83;156055.03;5104551;28;20525;-81
2022/07/10 00:20:08;;;;;;;6.57;5.97;;;;;;;18.24;85.98;156049.84;5071662;28;20484;-81
2022/07/10 00:22:35;;;;;;;6.50;5.90;;;;;;;18.26;84.61;156055.03;5067910;28;20482;-81
2022/07/10 00:25:01;;;;;;;6.13;5.63;;;;;;;18.28;82.99;156060.22;5054120;28;20555;-81
2022/07/10 00:27:28;;;;;;;5.90;5.50;;;;;;;18.25;84.33;156053.72;5070516;28;20508;-81
2022/07/10 00:29:55;;;;;;;6.17;5.67;;;;;;;18.23;83.84;156048.53;5088627;28;20454;-81
2022/07/10 00:32:22;;;;;;;6.20;5.60;;;;;;;18.29;84.53;156061.53;5067484;28;20480;-81
2022/07/10 00:34:51;;;;;;;5.33;4.90;;;;;;;18.27;84.12;156057.59;5070127;28;20462;-81
2022/07/10 00:37:18;;;;;;;5.43;4.93;;;;;;;18.30;84.64;156064.13;5090773;28;20895;-81
2022/07/10 00:39:44;;;;;;;6.30;5.80;;;;;;;18.26;84.20;156055.03;5092463;28;20445;-81
2022/07/10 00:42:13;;;;;;;5.10;4.70;;;;;;;18.25;84.78;156053.72;5074195;28;20549;-80
2022/07/10 00:44:40;;;;;;;7.00;5.53;;;;;;;18.26;84.41;156055.03;5101922;28;20461;-80
2022/07/10 00:47:08;;;;;;;6.17;5.67;;;;;;;18.23;84.24;156048.53;5056680;28;20499;-80
2022/07/10 00:49:36;;;;;;;5.80;5.30;;;;;;;18.26;84.21;156055.03;5103985;28;20540;-80
2022/07/10 00:52:07;;;;;;;6.30;5.47;;;;;;;18.27;84.23;156056.34;5070149;28;20445;-81
2022/07/10 00:54:35;;;;;;;6.17;5.57;;;;;;;18.24;84.92;156051.09;5090687;28;20487;-81
2022/07/10 00:57:05;;;;;;;5.60;5.10;;;;;;;18.22;85.08;156044.59;5070254;28;20434;-81
2022/07/10 00:59:32;;;;;;;6.40;5.80;;;;;;;18.22;84.68;156044.59;5067581;28;20557;-80
2022/07/10 01:01:58;;;;;;;6.10;5.60;;;;;;;18.18;85.48;156034.19;5064875;28;20534;-77
2022/07/10 01:04:25;;;;;;;6.50;5.93;;;;;;;18.14;84.74;156025.06;5060471;28;20476;-77
2022/07/10 01:06:52;;;;;;;5.93;5.43;;;;;;;18.13;84.83;156022.50;5070686;28;20522;-77
2022/07/10 01:09:20;;;;;;;6.23;5.63;;;;;;;18.12;83.94;156018.56;5070400;28;20554;-77
2022/07/10 01:11:47;;;;;;;6.50;5.90;;;;;;;18.02;84.18;155993.81;5069057;28;20452;-78
2022/07/10 01:14:15;;;;;;;6.07;5.57;;;;;;;17.97;84.39;155979.50;5100782;28;20741;-77
2022/07/10 01:16:42;;;;;;;6.13;5.53;;;;;;;17.95;84.84;155975.56;5069839;28;20450;-77
2022/07/10 01:19:09;;;;;;;6.17;5.67;;;;;;;17.90;85.07;155962.56;5102628;28;21023;-77
2022/07/10 01:21:38;;;;;;;6.47;5.90;;;;;;;17.86;85.41;155952.16;5069181;28;20540;-77
2022/07/10 01:24:07;;;;;;;6.50;6.00;;;;;;;17.85;85.22;155948.22;5066102;28;20446;-77
2022/07/10 01:26:34;;;;;;;5.93;5.43;;;;;;;17.78;85.58;155931.31;5078237;28;20532;-77
2022/07/10 01:29:03;;;;;;;6.27;5.77;;;;;;;17.73;85.63;155918.31;5123407;27;20449;-77
2022/07/10 01:31:30;;;;;;;6.47;5.87;;;;;;;17.72;85.49;155915.69;5101277;28;20987;-77
2022/07/10 01:33:57;;;;;;;7.30;6.70;;;;;;;17.67;85.23;155901.38;5069525;28;20454;-77
2022/07/10 01:36:24;;;;;;;6.30;5.70;;;;;;;17.65;86.11;155897.47;5103719;28;20488;-77
2022/07/10 01:38:53;;;;;;;6.57;6.03;;;;;;;17.60;85.82;155885.78;5101954;28;20457;-77
2022/07/10 01:41:20;;;;;;;6.80;6.27;;;;;;;17.63;86.28;155892.28;5069942;28;20450;-77
2022/07/10 01:43:48;;;;;;;7.10;6.40;;;;;;;17.56;86.48;155874.03;5095082;28;20737;-77
2022/07/10 01:46:16;;;;;;;6.70;6.10;;;;;;;17.57;85.94;155876.66;5128300;27;20468;-77
2022/07/10 01:48:42;;;;;;;7.03;6.37;;;;;;;17.46;86.07;155847.94;5089465;28;20449;-77
2022/07/10 01:51:10;;;;;;;7.10;6.40;;;;;;;17.41;86.60;155836.25;5074313;28;20462;-77
2022/07/10 01:53:37;;;;;;;6.60;6.00;;;;;;;17.46;86.19;155847.94;5073092;28;20843;-77
2022/07/10 01:56:07;;;;;;;6.20;5.70;;;;;;;17.43;86.52;155840.13;5071470;28;20452;-77
2022/07/10 01:58:34;;;;;;;7.87;6.77;;;;;;;17.46;86.41;155849.25;5116067;27;20877;-77
2022/07/10 02:01:01;;;;;;;7.63;6.90;;;;;;;17.43;86.38;155840.13;5074542;28;20464;-77
2022/07/10 02:06:12;;;;;;;7.73;6.83;;;;;;;17.29;87.50;155803.72;5074812;28;20596;-77
2022/07/10 02:08:38;;;;;;;7.73;7.10;;;;;;;17.27;87.53;155798.47;5073779;28;20456;-77
2022/07/10 02:11:07;;;;;;;7.63;6.93;;;;;;;17.25;87.26;155793.28;5074035;28;20515;-77
2022/07/10 02:13:34;;;;;;;7.53;6.93;;;;;;;17.20;87.23;155780.28;5105669;28;20515;-77
2022/07/10 02:16:00;;;;;;;7.43;6.83;;;;;;;17.11;87.85;155756.84;5076319;28;20542;-77
2022/07/10 02:18:27;;;;;;;8.30;7.50;;;;;;;17.14;88.33;155765.97;5058805;28;21049;-77
2022/07/10 02:20:54;;;;;;;8.30;7.60;;;;;;;17.11;88.18;155756.84;5055101;28;20439;-77
2022/07/10 02:23:21;;;;;;;8.50;7.70;;;;;;;17.16;88.23;155771.16;5104695;27;20960;-77
2022/07/10 02:25:47;;;;;;;9.20;8.30;;;;;;;17.12;88.37;155760.78;5075176;28;20466;-77
2022/07/10 02:28:15;;;;;;;8.53;7.73;;;;;;;17.02;89.55;155736.00;5072099;28;20438;-77
2022/07/10 02:30:42;;;;;;;9.60;8.73;;;;;;;17.01;89.83;155733.44;5105678;28;20470;-77
2022/07/10 02:33:09;;;;;;;9.43;8.63;;;;;;;16.98;90.29;155725.63;5074568;28;20454;-77
2022/07/10 02:35:36;;;;;;;11.17;10.17;;;;;;;16.96;91.24;155720.44;5107492;28;20487;-77
2022/07/10 02:38:03;;;;;;;11.70;10.70;;;;;;;16.95;91.95;155717.81;5073975;28;20418;-77
2022/07/10 02:40:29;;;;;;;13.23;11.20;;;;;;;16.90;92.39;155704.81;5106845;28;20473;-77
2022/07/10 02:42:56;;;;;;;12.93;11.67;;;;;;;16.87;92.96;155697.00;5070901;28;20449;-77
2022/07/10 02:45:24;;;;;;;13.00;11.70;;;;;;;16.87;94.06;155695.69;5055066;28;20512;-77
2022/07/10 02:47:51;;;;;;;11.73;10.57;;;;;;;16.84;94.21;155689.19;5072002;28;20545;-76
2022/07/10 02:50:18;;;;;;;12.93;11.73;;;;;;;16.82;94.58;155684.00;5092136;28;20536;-77
2022/07/10 02:52:44;;;;;;;14.40;13.10;;;;;;;16.80;95.29;155678.78;5067889;28;20890;-76
2022/07/10 02:55:11;;;;;;;14.00;12.53;;;;;;;16.79;95.37;155674.88;5076413;28;20793;-76
2022/07/10 02:57:38;;;;;;;13.93;12.07;;;;;;;16.81;95.13;155681.38;5072117;28;20525;-76
2022/07/10 03:00:06;;;;;;;12.93;11.73;;;;;;;16.77;95.90;155670.97;5071680;28;20541;-78
2022/07/10 03:02:34;;;;;;;14.80;13.33;;;;;;;16.83;95.72;155685.31;5070387;28;20460;-78
2022/07/10 03:05:01;;;;;;;14.13;12.73;;;;;;;16.86;95.94;155694.41;5063055;28;20474;-78
2022/07/10 03:07:27;;;;;;;15.20;13.60;;;;;;;16.81;96.30;155681.38;5091865;28;20440;-78
2022/07/10 03:09:54;;;;;;;13.97;12.57;;;;;;;16.77;96.13;155670.97;5091308;28;20516;-78
2022/07/10 03:12:21;;;;;;;13.80;12.60;;;;;;;16.80;95.91;155678.78;5065299;28;21047;-78
2022/07/10 03:14:48;;;;;;;13.17;11.87;;;;;;;16.86;95.02;155694.41;5071914;28;20442;-78
2022/07/10 03:17:14;;;;;;;13.00;11.70;;;;;;;16.79;95.43;155676.19;5106149;28;20442;-78
2022/07/10 03:19:42;;;;;;;12.10;10.90;;;;;;;16.80;95.62;155678.78;5105430;28;20560;-78
2022/07/10 03:22:09;;;;;;;10.93;9.87;;;;;;;16.78;95.35;155673.59;5079393;28;20433;-78
2022/07/10 03:24:36;;;;;;;12.80;11.50;;;;;;;16.79;95.22;155674.88;5071324;28;20460;-78
2022/07/10 03:27:03;;;;;;;12.50;11.30;;;;;;;16.83;95.37;155685.31;5072587;28;20442;-78
2022/07/10 03:29:33;;;;;;;11.47;10.30;;;;;;;16.82;95.27;155684.00;5060553;28;20874;-78
2022/07/10 03:31:59;;;;;;;11.80;10.50;;;;;;;16.77;95.77;155670.97;5070432;28;20438;-78
2022/07/10 03:34:26;;;;;;;12.83;11.70;;;;;;;16.67;95.58;155644.97;5072335;28;20545;-78
2022/07/10 03:36:54;;;;;;;12.13;10.87;;;;;;;16.71;95.45;155654.03;5103441;28;20944;-78
2022/07/10 03:39:21;;;;;;;11.37;10.20;;;;;;;16.69;95.08;155650.16;5071169;28;20519;-78
2022/07/10 03:41:48;;;;;;;10.50;9.50;;;;;;;16.71;95.07;155655.34;5071947;28;20491;-78
2022/07/10 03:44:14;;;;;;;11.60;10.40;;;;;;;16.68;95.86;155647.53;5071601;28;20779;-78
2022/07/10 03:46:41;;;;;;;11.90;10.83;;;;;;;16.61;95.42;155629.34;5070126;28;20532;-78
2022/07/10 03:49:08;;;;;;;11.60;10.50;;;;;;;16.61;95.83;155629.34;5050819;28;20453;-78
2022/07/10 03:51:35;;;;;;;10.27;9.37;;;;;;;16.61;96.13;155629.34;5071126;28;20449;-78
2022/07/10 03:54:03;;;;;;;15.93;10.50;;;;;;;16.51;96.44;155603.28;5069317;28;20454;-78
2022/07/10 03:59:14;;;;;;;11.80;10.50;;;;;;;16.54;96.10;155609.84;5060139;28;20466;-78
2022/07/10 04:01:40;;;;;;;11.40;10.30;;;;;;;16.49;96.36;155598.09;5050815;28;20526;-78
2022/07/10 04:04:07;;;;;;;11.50;10.37;;;;;;;16.42;96.79;155579.88;5082532;28;20821;-78
2022/07/10 04:06:34;;;;;;;10.40;9.40;;;;;;;16.45;96.30;155587.66;5054028;28;20517;-78
2022/07/10 04:09:00;;;;;;;11.77;10.57;;;;;;;16.38;97.11;155569.47;5091455;28;20536;-78
2022/07/10 04:11:28;;;;;;;10.33;9.33;;;;;;;16.29;97.47;155547.34;5072618;28;20553;-78
2022/07/10 04:13:55;;;;;;;12.40;11.27;;;;;;;16.35;97.84;155562.97;5105482;28;20452;-81
2022/07/10 04:16:22;;;;;;;11.00;9.90;;;;;;;16.36;97.67;155564.28;5104233;28;20457;-81
2022/07/10 04:18:49;;;;;;;11.30;10.20;;;;;;;16.40;97.22;155574.66;5071126;28;20450;-81
2022/07/10 04:21:16;;;;;;;10.57;9.33;;;;;;;16.39;97.40;155572.06;5072231;28;20437;-81
2022/07/10 04:23:43;;;;;;;10.60;9.50;;;;;;;16.39;97.44;155573.34;5104609;28;20857;-81
2022/07/10 04:26:09;;;;;;;13.80;10.97;;;;;;;16.39;97.43;155573.34;5092838;28;20474;-81
2022/07/10 04:28:37;;;;;;;11.43;10.33;;;;;;;16.38;97.62;155570.78;5103629;27;20457;-81
2022/07/10 04:31:04;;;;;;;11.70;10.60;;;;;;;16.41;97.82;155577.28;5070851;28;20422;-81
2022/07/10 04:33:31;;;;;;;12.07;10.87;;;;;;;16.43;97.71;155582.47;5070054;28;20484;-81
2022/07/10 04:35:58;;;;;;;11.90;10.60;;;;;;;16.39;98.54;155572.06;5069748;28;20426;-81
2022/07/10 04:38:25;;;;;;;11.40;9.93;;;;;;;16.39;98.43;155572.06;5063085;28;20455;-81
2022/07/10 04:40:51;;;;;;;11.70;10.70;;;;;;;16.30;98.34;155549.97;5061864;28;20517;-81
2022/07/10 04:43:18;;;;;;;10.37;9.47;;;;;;;16.23;98.43;155531.75;5087547;28;20541;-81
2022/07/10 04:45:46;;;;;;;11.33;10.23;;;;;;;16.11;99.41;155500.56;5070127;28;20862;-81
2022/07/10 04:48:13;;;;;;;12.60;11.30;;;;;;;16.25;98.21;155536.97;5071768;28;20438;-81
2022/07/10 04:50:40;;;;;;;12.60;11.30;;;;;;;16.20;98.28;155523.94;5070334;28;20504;-80
2022/07/10 04:53:06;;;;;;;10.77;9.77;;;;;;;16.17;97.57;155514.88;5070479;28;20528;-80
2022/07/10 04:55:33;;;;;;;11.30;10.20;;;;;;;16.08;97.98;155491.44;5070435;28;20524;-80
2022/07/10 04:58:00;;;;;;;10.87;9.87;;;;;;;16.07;97.71;155488.88;5060994;28;20491;-80
2022/07/10 05:00:27;;;;;;;10.50;9.50;;;;;;;16.10;98.36;155496.63;5055511;28;20448;-81
2022/07/10 05:02:55;;;;;;;11.13;9.83;;;;;;;16.15;97.32;155509.66;5070334;28;20446;-81
2022/07/10 05:05:21;;;;;;;9.80;8.57;;;;;;;16.06;97.41;155486.25;5103946;28;20503;-80
2022/07/10 05:07:48;;;;;;;9.67;8.63;;;;;;;16.01;96.52;155473.25;5103204;28;20454;-81
2022/07/10 05:10:15;;;;;;;9.77;8.83;;;;;;;16.09;96.48;155494.06;5069915;28;20575;-77
2022/07/10 05:12:42;;;;;;;11.40;8.80;;;;;;;16.14;95.95;155508.38;5104353;28;20528;-76
2022/07/10 05:15:09;;;;;;;9.07;8.17;;;;;;;16.02;96.72;155477.13;5068066;28;20450;-77
2022/07/10 05:17:36;;;;;;;9.90;9.00;;;;;;;15.94;98.02;155455.06;5098449;28;20477;-77
2022/07/10 05:20:06;;;;;;;10.53;8.90;;;;;;;15.90;99.18;155444.63;5106163;27;20461;-77
2022/07/10 05:22:32;;;;;;;8.67;7.87;;;;;;;15.90;99.22;155445.94;5079642;28;20990;-77
2022/07/10 05:24:59;;;;;;;9.50;8.60;;;;;;;15.95;98.99;155457.63;5068490;28;20442;-77
2022/07/10 05:27:26;;;;;;;10.60;9.30;;;;;;;15.99;97.49;155468.06;5103987;28;20560;-77
2022/07/10 05:29:53;;;;;;;9.43;8.53;;;;;;;15.91;98.53;155448.56;5069779;28;20453;-77
2022/07/10 05:32:20;;;;;;;9.00;8.10;;;;;;;15.98;98.40;155465.44;5068167;28;20438;-77
2022/07/10 05:34:46;;;;;;;9.00;8.20;;;;;;;16.00;98.76;155471.94;5103750;28;20480;-77
2022/07/10 05:37:14;;;;;;;9.50;8.70;;;;;;;16.05;97.95;155483.63;5069678;28;20533;-77
2022/07/10 05:39:41;;;;;;;9.03;8.10;;;;;;;16.01;96.60;155473.25;5071729;28;20440;-77
2022/07/10 05:42:08;;;;;;;7.60;6.13;;;;;;;16.18;96.76;155517.44;5070182;28;20542;-77
2022/07/10 05:44:35;;;;;;;8.90;7.03;;;;;;;16.28;94.14;155544.75;5070954;28;20544;-77
2022/07/10 05:47:01;;;;;;;7.37;6.67;;;;;;;16.38;93.42;155570.78;5071298;28;20562;-77
2022/07/10 05:49:28;;;;;;;7.33;6.63;;;;;;;16.35;92.14;155561.66;5103505;28;20450;-77
2022/07/10 05:51:55;;;;;;;6.87;5.77;;;;;;;16.31;89.08;155551.25;5086630;28;20468;-77
2022/07/10 05:54:23;;;;;;;8.00;6.57;;;;;;;16.54;88.08;155611.16;5103397;28;20507;-77
2022/07/10 05:56:51;;;;;;;6.00;5.50;;;;;;;16.78;87.29;155673.59;5053451;28;20438;-77
2022/07/10 05:59:17;;;;;;;5.67;5.10;;;;;;;16.84;86.05;155689.19;5111263;28;20900;-77
2022/07/10 06:01:44;;;;;;;5.70;5.20;;;;;;;16.68;87.13;155647.53;5090077;28;20788;-77
2022/07/10 06:04:11;;;;;;;8.10;5.73;;;;;;;16.66;86.71;155642.34;5091392;28;20476;-77
2022/07/10 06:06:37;;;;;;;6.20;4.90;;;;;;;16.63;87.52;155633.22;5073464;28;20569;-77
2022/07/10 06:09:04;;;;;;;5.60;5.20;;;;;;;16.59;87.37;155622.84;5103365;28;20524;-77
2022/07/10 06:11:33;;;;;;;5.60;5.10;;;;;;;16.50;86.10;155599.38;5070906;28;20549;-77
2022/07/10 06:14:00;;;;;;;4.70;4.20;;;;;;;16.34;82.18;155559.06;5071214;28;20452;-77
2022/07/10 06:16:27;;;;;;;4.37;3.80;;;;;;;16.28;83.35;155544.75;5083616;28;20441;-77
2022/07/10 06:18:54;;;;;;;4.50;4.10;;;;;;;16.46;83.98;155590.28;5088694;28;20441;-77
2022/07/10 06:21:22;;;;;;;4.90;4.10;;;;;;;16.56;83.89;155616.34;5070420;28;20473;-77
2022/07/10 06:23:50;;;;;;;4.23;3.83;;;;;;;16.75;82.68;155664.47;5068438;28;21001;-77
2022/07/10 06:26:17;;;;;;;4.53;3.63;;;;;;;17.00;81.79;155730.81;5050216;28;20489;-77
2022/07/10 06:28:45;;;;;;;4.00;3.70;;;;;;;17.03;78.08;155738.63;5072496;28;20461;-77
2022/07/10 06:31:11;;;;;;;3.40;3.10;;;;;;;16.98;79.56;155725.63;5106653;28;20444;-77
2022/07/10 06:33:38;;;;;;;5.93;3.50;;;;;;;17.07;78.24;155747.75;5123419;27;20542;-77
2022/07/10 06:36:07;;;;;;;4.17;3.77;;;;;;;16.96;78.68;155720.44;5070064;28;20476;-77
2022/07/10 06:38:33;;;;;;;4.60;4.10;;;;;;;16.76;80.14;155667.09;5055619;28;20485;-77
2022/07/10 06:41:00;;;;;;;5.20;4.70;;;;;;;16.72;82.15;155656.66;5074243;28;20453;-78
2022/07/10 06:43:27;;;;;;;4.97;4.47;;;;;;;16.76;82.35;155668.38;5073308;28;20549;-77
2022/07/10 06:45:55;;;;;;;5.60;4.10;;;;;;;16.84;82.47;155689.19;5074771;28;20437;-77
2022/07/10 06:48:21;;;;;;;5.70;4.43;;;;;;;16.79;82.88;155676.19;5066249;28;20471;-77
2022/07/10 06:50:48;;;;;;;6.17;5.10;;;;;;;16.70;82.47;155651.47;5072603;28;20450;-77
2022/07/10 06:53:15;;;;;;;6.33;5.10;;;;;;;16.57;82.17;155617.66;5053408;28;20232;-77
2022/07/10 06:55:42;;;;;;;4.40;4.00;;;;;;;16.43;80.91;155582.47;5073888;28;20499;-77
2022/07/10 06:58:09;;;;;;;4.60;4.20;;;;;;;16.39;81.72;155572.06;5071709;28;20481;-77
2022/07/10 07:00:36;;;;;;;5.17;4.07;;;;;;;16.33;81.34;155556.47;5073155;28;20446;-76
2022/07/10 07:03:04;;;;;;;5.30;4.50;;;;;;;16.25;82.77;155536.97;5054072;28;20477;-77
2022/07/10 07:05:31;;;;;;;5.87;4.20;;;;;;;16.34;81.81;155559.06;5072576;28;20534;-77
2022/07/10 07:07:58;;;;;;;4.23;3.83;;;;;;;16.46;80.46;155590.28;5070786;28;20474;-76
2022/07/10 07:10:24;;;;;;;5.57;4.27;;;;;;;17.11;79.72;155756.84;5074175;28;20454;-76
2022/07/10 07:12:51;;;;;;;3.70;3.30;;;;;;;17.53;77.46;155867.53;5106858;28;20441;-76
2022/07/10 07:15:20;;;;;;;3.40;3.10;;;;;;;17.61;76.15;155887.03;5072174;28;20452;-78
2022/07/10 07:17:56;;;;;;;3.60;3.30;;;;;;;17.36;73.24;155821.94;5079369;28;20462;-77
2022/07/10 07:23:13;;;;;;;3.90;3.30;;;;;;;16.94;76.14;155713.94;5072888;28;20537;-76
2022/07/10 07:25:41;;;;;;;4.00;3.50;;;;;;;16.81;76.44;155681.38;5073167;28;20444;-76
2022/07/10 07:28:09;;;;;;;4.80;4.37;;;;;;;16.96;76.78;155720.44;5106190;28;20516;-76
2022/07/10 07:30:36;;;;;;;4.60;3.43;;;;;;;17.14;75.11;155764.66;5073583;28;20488;-76
2022/07/10 07:33:02;;;;;;;4.47;3.97;;;;;;;17.23;74.44;155788.09;5072799;28;20442;-76
2022/07/10 07:35:31;;;;;;;5.20;3.37;;;;;;;17.34;74.29;155816.72;5071341;28;20457;-77
2022/07/10 07:37:57;;;;;;;3.80;3.50;;;;;;;17.35;74.38;155819.31;5072644;28;20433;-77
2022/07/10 07:40:24;;;;;;;3.90;2.80;;;;;;;17.41;73.82;155836.25;5089329;28;20443;-77
2022/07/10 07:42:53;;;;;;;3.67;3.30;;;;;;;17.41;74.98;155836.25;5071918;28;20496;-77
2022/07/10 07:45:20;;;;;;;4.77;3.30;;;;;;;17.30;75.30;155806.28;5069746;28;20450;-76
2022/07/10 07:47:49;;;;;;;4.30;3.30;;;;;;;17.22;74.70;155785.47;5073676;28;20476;-77
2022/07/10 07:50:18;;;;;;;4.03;3.00;;;;;;;17.13;74.31;155762.06;5072797;28;20519;-76
2022/07/10 07:52:47;;;;;;;4.77;3.60;;;;;;;16.98;73.93;155725.63;5073120;28;20450;-76
2022/07/10 07:55:15;;;;;;;4.00;3.07;;;;;;;17.05;76.83;155743.81;5071438;28;20449;-76
2022/07/10 07:57:42;;;;;;;5.27;4.17;;;;;;;17.21;75.40;155782.91;5071333;28;20465;-77
2022/07/10 08:00:10;;;;;;;6.40;4.10;;;;;;;17.23;75.46;155789.41;5072608;28;20822;-77
2022/07/10 08:02:42;;;;;;;4.40;3.30;;;;;;;17.28;74.68;155801.09;5070857;28;20796;-77
2022/07/10 08:05:10;;;;;;;4.80;3.60;;;;;;;17.15;74.27;155767.28;5061208;28;20469;-77
2022/07/10 08:07:41;;;;;;;6.33;3.30;;;;;;;17.06;75.69;155745.13;5069731;28;20469;-76
2022/07/10 08:10:11;;;;;;;3.83;3.47;;;;;;;17.27;74.85;155798.47;5069342;28;20461;-80
2022/07/10 08:12:38;;;;;;;4.10;3.50;;;;;;;17.51;73.21;155860.97;5069594;28;20885;-80
2022/07/10 08:15:08;;;;;;;3.80;3.50;;;;;;;17.45;72.12;155846.63;5068898;28;20445;-80
2022/07/10 08:17:35;;;;;;;4.63;3.70;;;;;;;17.36;72.02;155821.94;5077524;28;20457;-80
2022/07/10 08:20:02;;;;;;;5.60;3.57;;;;;;;17.37;71.85;155824.50;5071536;28;20454;-80
2022/07/10 08:22:28;;;;;;;3.73;3.43;;;;;;;17.40;72.13;155833.63;5070025;28;20525;-81
2022/07/10 08:24:56;;;;;;;3.60;3.20;;;;;;;17.22;72.52;155786.78;5068714;28;20466;-81
2022/07/10 08:27:24;;;;;;;3.33;3.03;;;;;;;17.37;72.96;155824.50;5060122;28;20512;-81
2022/07/10 08:29:51;;;;;;;7.93;3.50;;;;;;;17.39;72.14;155829.75;5088334;28;20561;-81
2022/07/10 08:32:18;;;;;;;3.37;3.07;;;;;;;17.70;72.48;155910.50;5072770;28;20499;-81
2022/07/10 08:34:45;;;;;;;3.40;3.10;;;;;;;17.96;69.64;155976.88;5098613;28;20439;-81
2022/07/10 08:37:12;;;;;;;4.17;2.83;;;;;;;18.19;68.70;156038.09;5067517;28;20429;-80
2022/07/10 08:39:39;;;;;;;2.57;2.37;;;;;;;18.74;66.50;156178.84;5082956;28;20460;-81
2022/07/10 08:42:07;;;;;;;4.63;3.10;;;;;;;18.74;64.27;156178.84;5062504;28;20454;-77
2022/07/10 08:44:35;;;;;;;3.13;2.73;;;;;;;18.42;65.04;156096.72;5086775;28;20453;-76
2022/07/10 08:47:03;;;;;;;3.00;2.70;;;;;;;18.93;65.79;156227.03;5071079;28;20492;-77
2022/07/10 08:49:31;;;;;;;3.03;2.70;;;;;;;19.27;64.13;156315.66;5087563;28;20446;-77
2022/07/10 08:52:00;;;;;;;2.63;2.43;;;;;;;19.48;63.48;156370.44;5076536;28;20454;-77
2022/07/10 08:54:28;;;;;;;3.20;2.90;;;;;;;19.48;63.11;156369.13;5103724;28;20457;-78
2022/07/10 08:56:57;;;;;;;5.43;2.57;;;;;;;19.72;62.80;156431.72;5053070;28;20436;-77
2022/07/10 08:59:24;;;;;;;2.87;2.67;;;;;;;19.70;62.03;156426.47;5071792;28;20473;-77
2022/07/10 09:01:53;;;;;;;4.30;3.07;;;;;;;19.76;62.83;156442.13;5069847;28;20481;-77
2022/07/10 09:04:21;;;;;;;3.53;3.07;;;;;;;19.84;61.99;156463.00;5071686;28;20454;-77
2022/07/10 09:06:48;;;;;;;4.90;4.10;;;;;;;20.17;61.19;156549.06;5071332;28;20967;-78
2022/07/10 09:09:15;;;;;;;4.63;2.70;;;;;;;20.11;59.99;156532.09;5114405;27;20437;-78
2022/07/10 09:11:42;;;;;;;4.07;3.27;;;;;;;20.04;57.43;156515.19;5091932;28;20421;-77
2022/07/10 09:14:11;;;;;;;2.80;2.60;;;;;;;19.98;59.44;156499.50;5069756;28;20465;-77
2022/07/10 09:16:39;;;;;;;4.10;2.50;;;;;;;20.14;59.94;156541.25;5069067;28;20442;-78
2022/07/10 09:19:21;;;;;;;3.00;2.63;;;;;;;20.08;58.97;156525.59;5068303;28;20450;-77
2022/07/10 09:21:50;;;;;;;3.03;2.60;;;;;;;20.44;59.05;156618.22;5070878;28;20548;-77
2022/07/10 09:24:19;;;;;;;3.37;2.53;;;;;;;20.34;57.03;156592.13;5067878;28;20464;-75
2022/07/10 09:26:59;;;;;;;2.60;2.40;;;;;;;20.46;55.90;156623.47;5075976;28;20442;-77
2022/07/10 09:29:26;;;;;;;7.80;3.07;;;;;;;20.44;56.60;156619.53;5052381;28;20450;-80
2022/07/10 09:31:53;;;;;;;3.00;2.80;;;;;;;20.59;57.39;156657.38;5070019;28;20446;-80
2022/07/10 09:34:37;;;;;;;4.10;2.60;;;;;;;19.91;56.48;156481.22;5071286;28;20840;-79
2022/07/10 09:37:23;;;;;;;4.13;2.90;;;;;;;19.68;58.52;156421.25;5104829;28;20436;-77
2022/07/10 09:39:58;;;;;;;3.37;2.60;;;;;;;19.87;57.07;156470.81;5072056;28;20462;-77
2022/07/10 09:42:29;;;;;;;3.90;2.50;;;;;;;19.54;58.23;156384.78;5070437;28;20506;-77
2022/07/10 09:45:16;;;;;;;3.20;2.57;;;;;;;20.07;58.59;156522.94;5104029;28;20536;-77
2022/07/10 09:47:44;;;;;;;3.00;2.60;;;;;;;20.36;56.72;156598.66;5069134;28;20480;-75
2022/07/10 09:50:23;;;;;;;3.83;2.50;;;;;;;20.50;56.19;156635.19;5068034;28;20841;-76
2022/07/10 09:52:51;;;;;;;2.73;2.20;;;;;;;20.28;56.25;156576.50;5090065;28;20437;-76
2022/07/10 09:55:20;;;;;;;2.27;2.07;;;;;;;19.93;55.33;156487.78;5068883;28;20434;-77
2022/07/10 09:57:50;;;;;;;4.00;2.30;;;;;;;19.99;56.76;156502.09;5066469;28;20470;-77
2022/07/10 10:00:17;;;;;;;3.20;2.80;;;;;;;20.02;58.05;156509.91;5077807;28;20474;-77
2022/07/10 10:02:44;;;;;;;4.60;2.37;;;;;;;20.24;56.02;156567.38;5069269;28;20438;-78
2022/07/10 10:05:11;;;;;;;6.30;2.20;;;;;;;20.53;55.76;156643.03;5075708;28;20453;-77
2022/07/10 10:07:39;;;;;;;2.93;2.60;;;;;;;20.59;54.24;156657.38;5102882;28;21339;-78
2022/07/10 10:10:09;;;;;;;3.10;2.20;;;;;;;20.48;54.33;156628.66;5073523;28;20442;-78
2022/07/10 10:12:43;;;;;;;2.47;2.27;;;;;;;20.53;55.30;156643.03;5072358;28;20446;-78
2022/07/10 10:15:12;;;;;;;2.70;2.17;;;;;;;20.35;54.10;156594.75;5070089;28;20430;-78
2022/07/10 10:17:42;;;;;;;3.30;2.47;;;;;;;19.86;55.14;156468.19;5056336;28;20426;-77
2022/07/10 10:23:00;;;;;;;2.20;2.00;;;;;;;20.05;56.57;156519.06;5071369;28;20417;-78
2022/07/10 10:25:27;;;;;;;2.27;2.10;;;;;;;20.12;56.87;156536.00;5074797;28;20460;-77
2022/07/10 10:27:54;;;;;;;2.57;2.37;;;;;;;20.36;53.74;156598.66;5072724;28;20477;-76
2022/07/10 10:30:21;;;;;;;3.30;2.33;;;;;;;20.19;55.29;156554.28;5068061;28;20499;-76
2022/07/10 10:32:47;;;;;;;4.47;3.23;;;;;;;19.93;54.57;156486.47;5072277;28;20460;-78
2022/07/10 10:35:46;;;;;;;4.47;2.73;;;;;;;19.93;55.71;156487.78;5070293;28;20461;-77
2022/07/10 10:38:15;;;;;;;2.63;2.43;;;;;;;20.11;55.19;156533.41;5099524;28;20442;-77
2022/07/10 10:40:42;;;;;;;3.17;2.87;;;;;;;20.28;54.91;156577.78;5071409;28;20461;-78
2022/07/10 10:43:19;;;;;;;2.80;2.40;;;;;;;20.04;54.16;156515.19;5069214;28;20437;-77
2022/07/10 10:45:46;;;;;;;3.03;2.30;;;;;;;19.66;54.82;156416.06;5052380;28;20449;-77
2022/07/10 10:48:15;;;;;;;3.17;2.37;;;;;;;19.86;54.93;156468.19;5063750;28;20481;-77
2022/07/10 10:50:42;;;;;;;3.63;2.30;;;;;;;19.65;54.07;156413.44;5070809;28;20442;-77
2022/07/10 10:53:22;;;;;;;2.53;2.33;;;;;;;19.80;53.14;156453.84;5071931;28;20447;-77
2022/07/10 10:56:26;;;;;;;2.80;2.50;;;;;;;19.97;54.16;156498.19;5095629;28;20485;-78
2022/07/10 10:58:53;;;;;;;2.83;2.27;;;;;;;20.22;53.84;156562.13;5073062;28;20560;-78
2022/07/10 11:01:28;;;;;;;3.27;2.93;;;;;;;20.26;52.55;156572.56;5073366;28;20770;-78
2022/07/10 11:04:14;;;;;;;4.40;2.20;;;;;;;20.20;52.00;156556.84;5067616;28;20456;-78
2022/07/10 11:06:41;;;;;;;3.70;2.50;;;;;;;20.12;52.37;156534.72;5098140;28;20457;-77
2022/07/10 11:09:28;;;;;;;4.00;2.60;;;;;;;20.26;53.16;156572.56;5072502;28;20473;-78
2022/07/10 11:12:05;;;;;;;2.70;2.30;;;;;;;20.61;53.96;156662.59;5072325;28;20441;-78
2022/07/10 11:14:33;;;;;;;2.90;2.40;;;;;;;20.43;52.66;156616.94;5097412;28;20450;-81
2022/07/10 11:17:01;;;;;;;3.10;2.60;;;;;;;20.34;53.51;156593.44;5071076;28;20533;-86
2022/07/10 11:19:28;;;;;;;7.20;3.17;;;;;;;20.22;53.50;156562.13;5072629;28;20445;-82
2022/07/10 11:22:05;;;;;;;3.87;2.97;;;;;;;20.31;53.65;156585.63;5074511;28;20518;-82
2022/07/10 11:24:41;;;;;;;2.97;1.93;;;;;;;20.63;54.06;156667.78;5074565;28;20456;-81
2022/07/10 11:27:20;;;;;;;2.60;2.37;;;;;;;20.93;51.77;156744.78;5072583;28;20491;-82
2022/07/10 11:29:48;;;;;;;3.90;2.90;;;;;;;20.77;51.05;156703.03;5054577;28;20908;-81
2022/07/10 11:32:17;;;;;;;2.40;2.20;;;;;;;20.64;53.10;156671.72;5074615;28;20537;-81
2022/07/10 11:34:44;;;;;;;4.50;3.50;;;;;;;20.94;52.09;156748.69;5076585;28;20446;-81
2022/07/10 11:37:15;;;;;;;3.77;2.30;;;;;;;20.84;50.95;156721.28;5072706;28;20440;-81